ロングイェールビーン の空港の天気 - METARとTAF

スヴァールバル空港 ( ENSB / LYR ) - スヴァールバル諸島・ヤンマイエン島 ロングイェールビーン
飛行場実況気象(Metar)
観測時間06/18 00:50 CEST (06/17 22:50 UTC)
風向・風速西 3m/s
視程10km以上
天気現象
全天の8割程度の雲 雲底高度 1680m
気温6℃
湿度61%
気圧1009hPa
METARENSB 172250Z 26005KT 200V290 9999 BKN055 06/M01 Q1009 RMK WIND 1400FT 22005KT
過去の天気等 Google飛行場航空写真 Wunderground天気予報

過去48時間のMETAR

飛行場予報(TAF)
発表時間: -
TAF ENSB 1800/1824 26008KT 9999 FEW015 SCT050